This is the latest recevied weather packets stored in our database for station/object KD9JJA. If no packets are shown the sender has not sent any weather packets the latest 1 day(s).
| Time | Temp. | Humidity | Pressure | Rain* | Wind** | Luminosity | Snow |
|---|---|---|---|---|---|---|---|
| 1778011259 | 15.56° C | 99% | 1009.2 hPa | 0 mm | 0.45 m/s, 226° | 13 W/m² | - |
| 1778010955 | 15.56° C | 99% | 1009.1 hPa | 0 mm | 0.89 m/s, 228° | 16 W/m² | - |
| 1778010653 | 15.56° C | 99% | 1009 hPa | 0 mm | 0.45 m/s, 219° | 21 W/m² | - |
| 1778010350 | 15.56° C | 99% | 1008.9 hPa | 0 mm | 1.79 m/s, 228° | 32 W/m² | - |
| 1778010046 | 15.56° C | 99% | 1009.2 hPa | 0 mm | 0.45 m/s, 215° | 37 W/m² | - |
| 1778009743 | 15.56° C | 99% | 1009.1 hPa | 0 mm | 0 m/s | 55 W/m² | - |
| 1778009440 | 15.56° C | 99% | 1009.3 hPa | 0 mm | 0 m/s | 58 W/m² | - |
| 1778009139 | 15.56° C | 99% | 1009.4 hPa | 0 mm | 0.89 m/s, 222° | 73 W/m² | - |
| 1778008836 | 15.56° C | 99% | 1009.6 hPa | 0 mm | 0.45 m/s, 214° | 72 W/m² | - |
| 1778008534 | 15.56° C | 99% | 1009.3 hPa | 0 mm | 0.89 m/s, 217° | 66 W/m² | - |
| 1778008231 | 15.56° C | 99% | 1009.4 hPa | 0 mm | 0.89 m/s, 212° | 60 W/m² | - |
| 1778007936 | 15.56° C | 99% | 1009.6 hPa | 0 mm | 0 m/s | 58 W/m² | - |
| 1778007623 | 15.56° C | 99% | 1009.5 hPa | 0 mm | 0 m/s | 45 W/m² | - |
| 1778007319 | 15° C | 99% | 1009.5 hPa | 0 mm | 0.45 m/s, 218° | 37 W/m² | - |
| 1778007016 | 15.56° C | 99% | 1009.7 hPa | 0 mm | 0 m/s | 19 W/m² | - |
| 1778006713 | 15° C | 99% | 1009.7 hPa | 0 mm | 0.45 m/s, 229° | 21 W/m² | - |
| 1778006409 | 15° C | 99% | 1009.9 hPa | 0 mm | 0 m/s | 21 W/m² | - |
| 1778006106 | 15° C | 99% | 1009.6 hPa | 0 mm | 0 m/s | 50 W/m² | - |
| 1778005802 | 15° C | 99% | 1009.5 hPa | 0 mm | 0.89 m/s, 225° | 64 W/m² | - |
| 1778005500 | 15° C | 99% | 1009.6 hPa | 0 mm | 0 m/s | 39 W/m² | - |
| 1778005196 | 15° C | 99% | 1009.5 hPa | 0 mm | 0.45 m/s, 192° | 92 W/m² | - |
| 1778004893 | 15° C | 99% | 1009.7 hPa | 0 mm | 0 m/s | 60 W/m² | - |
| 1778004590 | 15° C | 99% | 1009.5 hPa | 0 mm | 0 m/s | 47 W/m² | - |
| 1778004286 | 15° C | 99% | 1009.6 hPa | 0 mm | 0.45 m/s, 229° | 53 W/m² | - |
| 1778003983 | 15° C | 99% | 1009.6 hPa | 0 mm | 0 m/s | 39 W/m² | - |
* Rain latest hour (hover to see other rain measurements)
** Current wind speed in m/s (hover to see current wind gust speed)